sensor_id;sensor_type;location;lat;lon;timestamp;P1;durP1;ratioP1;P2;durP2;ratioP2
9384;SDS011;4732;49.340;10.886;2023-09-12T03:03:45;9.82;;;8.45;;
9384;SDS011;4732;49.340;10.886;2023-09-12T03:06:12;8.65;;;7.70;;
9384;SDS011;4732;49.340;10.886;2023-09-12T03:08:39;10.23;;;9.00;;
9384;SDS011;4732;49.340;10.886;2023-09-12T03:11:05;9.05;;;8.15;;
9384;SDS011;4732;49.340;10.886;2023-09-12T03:13:32;9.27;;;8.15;;
9384;SDS011;4732;49.340;10.886;2023-09-12T03:15:58;8.77;;;7.90;;
9384;SDS011;4732;49.340;10.886;2023-09-12T03:18:24;8.63;;;7.57;;
9384;SDS011;4732;49.340;10.886;2023-09-12T03:20:49;9.30;;;7.03;;
9384;SDS011;4732;49.340;10.886;2023-09-12T03:23:15;11.27;;;7.97;;
9384;SDS011;4732;49.340;10.886;2023-09-12T03:25:41;9.45;;;8.45;;
9384;SDS011;4732;49.340;10.886;2023-09-12T03:28:06;9.65;;;8.65;;
9384;SDS011;4732;49.340;10.886;2023-09-12T03:30:33;9.27;;;8.38;;
9384;SDS011;4732;49.340;10.886;2023-09-12T03:33:00;9.43;;;8.43;;
9384;SDS011;4732;49.340;10.886;2023-09-12T03:35:26;10.02;;;9.02;;
9384;SDS011;4732;49.340;10.886;2023-09-12T03:37:56;12.30;;;9.25;;
9384;SDS011;4732;49.340;10.886;2023-09-12T03:40:22;9.02;;;8.13;;
9384;SDS011;4732;49.340;10.886;2023-09-12T03:42:47;11.13;;;9.02;;
9384;SDS011;4732;49.340;10.886;2023-09-12T03:45:16;9.80;;;8.80;;
9384;SDS011;4732;49.340;10.886;2023-09-12T03:47:41;9.93;;;8.93;;
9384;SDS011;4732;49.340;10.886;2023-09-12T03:50:08;10.05;;;8.32;;
9384;SDS011;4732;49.340;10.886;2023-09-12T03:52:34;9.48;;;8.45;;
9384;SDS011;4732;49.340;10.886;2023-09-12T03:55:00;9.18;;;7.72;;
9384;SDS011;4732;49.340;10.886;2023-09-12T03:57:26;9.60;;;8.65;;
9384;SDS011;4732;49.340;10.886;2023-09-12T03:59:51;12.52;;;8.48;;
9384;SDS011;4732;49.340;10.886;2023-09-12T04:02:17;11.07;;;8.65;;
9384;SDS011;4732;49.340;10.886;2023-09-12T04:04:43;13.63;;;9.27;;
9384;SDS011;4732;49.340;10.886;2023-09-12T04:07:12;10.20;;;8.27;;
9384;SDS011;4732;49.340;10.886;2023-09-12T04:09:39;12.30;;;9.48;;
9384;SDS011;4732;49.340;10.886;2023-09-12T04:12:05;10.23;;;9.20;;
9384;SDS011;4732;49.340;10.886;2023-09-12T04:14:34;9.73;;;8.73;;
9384;SDS011;4732;49.340;10.886;2023-09-12T04:17:03;9.45;;;8.52;;
9384;SDS011;4732;49.340;10.886;2023-09-12T04:19:30;9.98;;;8.90;;
9384;SDS011;4732;49.340;10.886;2023-09-12T04:21:56;10.98;;;8.70;;
9384;SDS011;4732;49.340;10.886;2023-09-12T04:24:22;8.82;;;7.93;;
9384;SDS011;4732;49.340;10.886;2023-09-12T04:26:47;7.18;;;6.47;;
9384;SDS011;4732;49.340;10.886;2023-09-12T04:29:13;9.02;;;6.53;;
9384;SDS011;4732;49.340;10.886;2023-09-12T04:31:39;8.73;;;7.43;;
9384;SDS011;4732;49.340;10.886;2023-09-12T04:34:05;9.98;;;7.60;;
9384;SDS011;4732;49.340;10.886;2023-09-12T04:36:31;9.35;;;8.35;;
9384;SDS011;4732;49.340;10.886;2023-09-12T04:38:57;10.13;;;8.50;;
9384;SDS011;4732;49.340;10.886;2023-09-12T04:41:23;9.95;;;8.77;;
9384;SDS011;4732;49.340;10.886;2023-09-12T04:43:49;9.55;;;8.38;;
9384;SDS011;4732;49.340;10.886;2023-09-12T04:46:15;11.27;;;8.60;;
9384;SDS011;4732;49.340;10.886;2023-09-12T04:48:41;11.35;;;8.80;;
9384;SDS011;4732;49.340;10.886;2023-09-12T04:51:08;11.48;;;8.90;;
9384;SDS011;4732;49.340;10.886;2023-09-12T04:53:34;9.35;;;8.20;;
9384;SDS011;4732;49.340;10.886;2023-09-12T04:56:03;9.95;;;8.95;;
9384;SDS011;4732;49.340;10.886;2023-09-12T04:58:29;9.98;;;9.00;;
9384;SDS011;4732;49.340;10.886;2023-09-12T05:00:55;9.73;;;8.10;;
9384;SDS011;4732;49.340;10.886;2023-09-12T05:03:21;11.77;;;8.35;;
9384;SDS011;4732;49.340;10.886;2023-09-12T05:05:48;11.30;;;8.90;;
9384;SDS011;4732;49.340;10.886;2023-09-12T05:08:15;10.68;;;7.88;;
9384;SDS011;4732;49.340;10.886;2023-09-12T05:10:41;10.23;;;9.23;;
9384;SDS011;4732;49.340;10.886;2023-09-12T05:13:09;10.45;;;8.57;;
9384;SDS011;4732;49.340;10.886;2023-09-12T05:15:35;12.85;;;9.27;;
9384;SDS011;4732;49.340;10.886;2023-09-12T05:18:02;10.75;;;9.55;;
9384;SDS011;4732;49.340;10.886;2023-09-12T05:20:27;11.70;;;9.85;;
9384;SDS011;4732;49.340;10.886;2023-09-12T05:22:53;10.82;;;9.15;;
9384;SDS011;4732;49.340;10.886;2023-09-12T05:25:19;10.77;;;9.57;;
9384;SDS011;4732;49.340;10.886;2023-09-12T05:27:45;10.95;;;9.48;;
9384;SDS011;4732;49.340;10.886;2023-09-12T05:30:11;12.05;;;9.52;;
9384;SDS011;4732;49.340;10.886;2023-09-12T05:32:37;11.82;;;10.38;;
9384;SDS011;4732;49.340;10.886;2023-09-12T05:35:04;19.23;;;13.10;;
9384;SDS011;4732;49.340;10.886;2023-09-12T05:37:30;14.23;;;11.23;;
9384;SDS011;4732;49.340;10.886;2023-09-12T05:39:56;13.98;;;10.18;;
9384;SDS011;4732;49.340;10.886;2023-09-12T05:42:21;15.45;;;12.25;;
9384;SDS011;4732;49.340;10.886;2023-09-12T05:44:48;13.30;;;11.13;;
9384;SDS011;4732;49.340;10.886;2023-09-12T05:47:14;12.27;;;10.43;;
9384;SDS011;4732;49.340;10.886;2023-09-12T05:49:41;15.52;;;10.05;;
9384;SDS011;4732;49.340;10.886;2023-09-12T05:52:07;12.38;;;11.07;;
9384;SDS011;4732;49.340;10.886;2023-09-12T05:54:33;11.18;;;9.43;;
9384;SDS011;4732;49.340;10.886;2023-09-12T05:57:01;13.10;;;10.43;;
9384;SDS011;4732;49.340;10.886;2023-09-12T05:59:47;12.70;;;11.38;;
9384;SDS011;4732;49.340;10.886;2023-09-12T06:02:13;20.10;;;15.27;;
9384;SDS011;4732;49.340;10.886;2023-09-12T06:04:42;12.95;;;11.00;;
9384;SDS011;4732;49.340;10.886;2023-09-12T06:07:08;15.50;;;12.18;;
9384;SDS011;4732;49.340;10.886;2023-09-12T06:09:34;13.10;;;11.70;;
9384;SDS011;4732;49.340;10.886;2023-09-12T06:12:04;15.48;;;12.23;;
9384;SDS011;4732;49.340;10.886;2023-09-12T06:14:30;13.55;;;11.80;;
9384;SDS011;4732;49.340;10.886;2023-09-12T06:16:56;13.48;;;11.43;;
9384;SDS011;4732;49.340;10.886;2023-09-12T06:19:29;13.90;;;12.57;;
9384;SDS011;4732;49.340;10.886;2023-09-12T06:21:55;13.85;;;12.15;;
9384;SDS011;4732;49.340;10.886;2023-09-12T06:24:21;15.55;;;12.73;;
9384;SDS011;4732;49.340;10.886;2023-09-12T06:26:48;14.07;;;12.63;;
9384;SDS011;4732;49.340;10.886;2023-09-12T06:29:14;14.57;;;12.98;;
9384;SDS011;4732;49.340;10.886;2023-09-12T06:31:39;15.15;;;13.55;;
9384;SDS011;4732;49.340;10.886;2023-09-12T06:34:08;14.65;;;13.05;;
9384;SDS011;4732;49.340;10.886;2023-09-12T06:36:34;16.45;;;14.30;;
9384;SDS011;4732;49.340;10.886;2023-09-12T06:39:00;16.40;;;14.70;;
9384;SDS011;4732;49.340;10.886;2023-09-12T06:41:26;15.80;;;13.95;;
9384;SDS011;4732;49.340;10.886;2023-09-12T06:43:52;14.88;;;13.07;;
9384;SDS011;4732;49.340;10.886;2023-09-12T06:46:18;14.60;;;13.10;;
9384;SDS011;4732;49.340;10.886;2023-09-12T06:48:57;14.30;;;12.80;;
9384;SDS011;4732;49.340;10.886;2023-09-12T06:51:23;16.05;;;13.93;;
9384;SDS011;4732;49.340;10.886;2023-09-12T06:54:07;13.50;;;12.18;;
9384;SDS011;4732;49.340;10.886;2023-09-12T06:56:43;16.65;;;12.65;;
9384;SDS011;4732;49.340;10.886;2023-09-12T06:59:12;14.68;;;12.95;;
9384;SDS011;4732;49.340;10.886;2023-09-12T07:04:32;13.70;;;11.65;;
9384;SDS011;4732;49.340;10.886;2023-09-12T07:07:09;14.85;;;12.20;;
9384;SDS011;4732;49.340;10.886;2023-09-12T07:10:18;15.43;;;11.30;;
9384;SDS011;4732;49.340;10.886;2023-09-12T07:12:56;17.05;;;13.10;;
9384;SDS011;4732;49.340;10.886;2023-09-12T07:18:26;15.93;;;12.38;;
9384;SDS011;4732;49.340;10.886;2023-09-12T07:21:01;14.15;;;12.07;;
9384;SDS011;4732;49.340;10.886;2023-09-12T07:23:43;15.27;;;10.77;;
9384;SDS011;4732;49.340;10.886;2023-09-12T07:29:12;13.20;;;11.70;;
9384;SDS011;4732;49.340;10.886;2023-09-12T07:31:38;13.93;;;11.68;;
9384;SDS011;4732;49.340;10.886;2023-09-12T07:34:09;17.63;;;13.27;;
9384;SDS011;4732;49.340;10.886;2023-09-12T07:36:42;19.92;;;13.27;;
9384;SDS011;4732;49.340;10.886;2023-09-12T07:39:10;13.45;;;11.23;;
9384;SDS011;4732;49.340;10.886;2023-09-12T07:41:36;15.30;;;11.88;;
9384;SDS011;4732;49.340;10.886;2023-09-12T07:44:02;14.00;;;11.98;;
9384;SDS011;4732;49.340;10.886;2023-09-12T07:46:29;16.75;;;13.30;;
9384;SDS011;4732;49.340;10.886;2023-09-12T07:48:55;15.55;;;12.93;;
9384;SDS011;4732;49.340;10.886;2023-09-12T07:51:21;16.88;;;13.40;;
9384;SDS011;4732;49.340;10.886;2023-09-12T07:53:48;15.27;;;12.82;;
9384;SDS011;4732;49.340;10.886;2023-09-12T07:56:13;15.98;;;12.52;;
9384;SDS011;4732;49.340;10.886;2023-09-12T07:58:42;19.02;;;11.68;;
9384;SDS011;4732;49.340;10.886;2023-09-12T08:01:08;14.02;;;12.00;;
9384;SDS011;4732;49.340;10.886;2023-09-12T08:03:34;13.57;;;11.60;;
9384;SDS011;4732;49.340;10.886;2023-09-12T08:06:08;17.77;;;12.13;;
9384;SDS011;4732;49.340;10.886;2023-09-12T08:08:36;18.80;;;13.30;;
9384;SDS011;4732;49.340;10.886;2023-09-12T08:11:02;16.80;;;11.30;;
9384;SDS011;4732;49.340;10.886;2023-09-12T08:13:30;18.85;;;12.02;;
9384;SDS011;4732;49.340;10.886;2023-09-12T08:15:59;17.75;;;11.13;;
9384;SDS011;4732;49.340;10.886;2023-09-12T08:18:26;14.50;;;10.90;;
9384;SDS011;4732;49.340;10.886;2023-09-12T08:20:54;14.05;;;10.77;;
9384;SDS011;4732;49.340;10.886;2023-09-12T08:23:30;14.80;;;10.52;;
9384;SDS011;4732;49.340;10.886;2023-09-12T08:25:55;17.08;;;10.38;;
9384;SDS011;4732;49.340;10.886;2023-09-12T08:28:21;14.90;;;10.43;;
9384;SDS011;4732;49.340;10.886;2023-09-12T08:30:47;14.73;;;10.52;;
9384;SDS011;4732;49.340;10.886;2023-09-12T08:33:12;13.18;;;10.55;;
9384;SDS011;4732;49.340;10.886;2023-09-12T08:35:41;13.93;;;10.02;;
9384;SDS011;4732;49.340;10.886;2023-09-12T08:38:14;18.00;;;10.25;;
9384;SDS011;4732;49.340;10.886;2023-09-12T08:40:39;14.00;;;10.32;;
9384;SDS011;4732;49.340;10.886;2023-09-12T08:43:05;14.57;;;9.57;;
9384;SDS011;4732;49.340;10.886;2023-09-12T08:45:31;13.35;;;9.70;;
9384;SDS011;4732;49.340;10.886;2023-09-12T08:47:58;18.58;;;10.75;;
9384;SDS011;4732;49.340;10.886;2023-09-12T08:50:30;15.95;;;9.88;;
9384;SDS011;4732;49.340;10.886;2023-09-12T08:52:58;15.38;;;9.80;;
9384;SDS011;4732;49.340;10.886;2023-09-12T08:55:24;11.25;;;8.90;;
9384;SDS011;4732;49.340;10.886;2023-09-12T08:57:50;14.20;;;10.32;;
9384;SDS011;4732;49.340;10.886;2023-09-12T09:00:17;8.85;;;7.38;;
9384;SDS011;4732;49.340;10.886;2023-09-12T09:02:43;9.50;;;8.13;;
9384;SDS011;4732;49.340;10.886;2023-09-12T09:05:10;10.93;;;8.10;;
9384;SDS011;4732;49.340;10.886;2023-09-12T09:07:37;11.07;;;7.30;;
9384;SDS011;4732;49.340;10.886;2023-09-12T09:10:04;12.18;;;7.65;;
9384;SDS011;4732;49.340;10.886;2023-09-12T09:12:34;9.95;;;6.68;;
9384;SDS011;4732;49.340;10.886;2023-09-12T09:17:50;12.60;;;7.93;;
9384;SDS011;4732;49.340;10.886;2023-09-12T09:20:30;9.55;;;7.10;;
9384;SDS011;4732;49.340;10.886;2023-09-12T09:23:04;8.55;;;7.55;;
9384;SDS011;4732;49.340;10.886;2023-09-12T09:25:31;9.70;;;7.57;;
9384;SDS011;4732;49.340;10.886;2023-09-12T09:28:15;8.38;;;7.20;;
9384;SDS011;4732;49.340;10.886;2023-09-12T09:30:43;10.50;;;7.70;;
9384;SDS011;4732;49.340;10.886;2023-09-12T09:33:10;8.88;;;7.85;;
9384;SDS011;4732;49.340;10.886;2023-09-12T09:35:37;10.73;;;7.43;;
9384;SDS011;4732;49.340;10.886;2023-09-12T09:38:06;10.30;;;7.53;;
9384;SDS011;4732;49.340;10.886;2023-09-12T09:40:32;11.05;;;7.53;;
9384;SDS011;4732;49.340;10.886;2023-09-12T09:42:59;10.98;;;8.43;;
9384;SDS011;4732;49.340;10.886;2023-09-12T09:45:27;9.55;;;7.78;;
9384;SDS011;4732;49.340;10.886;2023-09-12T09:47:56;9.45;;;7.05;;
9384;SDS011;4732;49.340;10.886;2023-09-12T09:50:24;8.38;;;7.50;;
9384;SDS011;4732;49.340;10.886;2023-09-12T09:52:59;9.63;;;7.32;;
9384;SDS011;4732;49.340;10.886;2023-09-12T09:55:26;9.38;;;7.07;;
9384;SDS011;4732;49.340;10.886;2023-09-12T09:57:52;12.55;;;7.95;;
9384;SDS011;4732;49.340;10.886;2023-09-12T10:00:19;12.75;;;8.00;;
9384;SDS011;4732;49.340;10.886;2023-09-12T10:02:48;16.55;;;7.63;;
9384;SDS011;4732;49.340;10.886;2023-09-12T10:05:15;8.55;;;7.15;;
9384;SDS011;4732;49.340;10.886;2023-09-12T10:07:42;12.23;;;7.13;;
9384;SDS011;4732;49.340;10.886;2023-09-12T10:10:11;8.70;;;7.20;;
9384;SDS011;4732;49.340;10.886;2023-09-12T10:12:39;9.20;;;7.47;;
9384;SDS011;4732;49.340;10.886;2023-09-12T10:15:12;9.00;;;6.85;;
9384;SDS011;4732;49.340;10.886;2023-09-12T10:17:40;8.65;;;7.10;;
9384;SDS011;4732;49.340;10.886;2023-09-12T10:20:12;8.25;;;6.82;;
9384;SDS011;4732;49.340;10.886;2023-09-12T10:22:52;14.55;;;7.10;;
9384;SDS011;4732;49.340;10.886;2023-09-12T10:25:25;12.73;;;7.00;;
9384;SDS011;4732;49.340;10.886;2023-09-12T10:27:53;8.70;;;6.35;;
9384;SDS011;4732;49.340;10.886;2023-09-12T10:30:28;11.23;;;6.22;;
9384;SDS011;4732;49.340;10.886;2023-09-12T10:32:55;8.15;;;6.05;;
9384;SDS011;4732;49.340;10.886;2023-09-12T10:35:22;9.27;;;6.47;;
9384;SDS011;4732;49.340;10.886;2023-09-12T10:37:47;8.60;;;5.78;;
9384;SDS011;4732;49.340;10.886;2023-09-12T10:40:15;12.73;;;6.00;;
9384;SDS011;4732;49.340;10.886;2023-09-12T10:42:58;7.55;;;6.10;;
9384;SDS011;4732;49.340;10.886;2023-09-12T10:45:28;8.63;;;5.60;;
9384;SDS011;4732;49.340;10.886;2023-09-12T10:47:56;8.20;;;6.38;;
9384;SDS011;4732;49.340;10.886;2023-09-12T10:50:22;8.63;;;6.60;;
9384;SDS011;4732;49.340;10.886;2023-09-12T10:56:00;9.15;;;6.30;;
9384;SDS011;4732;49.340;10.886;2023-09-12T10:58:26;10.93;;;6.57;;
9384;SDS011;4732;49.340;10.886;2023-09-12T11:03:38;9.70;;;6.40;;
9384;SDS011;4732;49.340;10.886;2023-09-12T11:06:05;9.38;;;6.40;;
9384;SDS011;4732;49.340;10.886;2023-09-12T11:08:45;10.10;;;6.60;;
9384;SDS011;4732;49.340;10.886;2023-09-12T11:11:31;10.05;;;6.70;;
9384;SDS011;4732;49.340;10.886;2023-09-12T11:14:02;13.95;;;7.03;;
9384;SDS011;4732;49.340;10.886;2023-09-12T11:16:28;9.10;;;6.43;;
9384;SDS011;4732;49.340;10.886;2023-09-12T11:21:53;9.25;;;6.93;;
9384;SDS011;4732;49.340;10.886;2023-09-12T11:24:19;7.25;;;6.43;;
9384;SDS011;4732;49.340;10.886;2023-09-12T11:26:58;7.60;;;6.60;;
9384;SDS011;4732;49.340;10.886;2023-09-12T11:29:35;7.50;;;6.57;;
9384;SDS011;4732;49.340;10.886;2023-09-12T11:32:05;7.82;;;6.40;;
9384;SDS011;4732;49.340;10.886;2023-09-12T11:34:36;9.10;;;6.32;;
9384;SDS011;4732;49.340;10.886;2023-09-12T11:37:06;8.00;;;6.85;;
9384;SDS011;4732;49.340;10.886;2023-09-12T11:39:33;10.05;;;7.07;;
9384;SDS011;4732;49.340;10.886;2023-09-12T11:42:01;9.70;;;6.80;;
9384;SDS011;4732;49.340;10.886;2023-09-12T11:44:28;7.88;;;6.85;;
9384;SDS011;4732;49.340;10.886;2023-09-12T11:46:56;12.82;;;6.50;;
9384;SDS011;4732;49.340;10.886;2023-09-12T11:49:28;10.55;;;6.68;;
9384;SDS011;4732;49.340;10.886;2023-09-12T11:52:00;12.02;;;7.53;;
9384;SDS011;4732;49.340;10.886;2023-09-12T11:54:26;11.35;;;7.30;;
9384;SDS011;4732;49.340;10.886;2023-09-12T11:56:52;12.38;;;6.80;;
9384;SDS011;4732;49.340;10.886;2023-09-12T11:59:30;13.88;;;6.88;;
9384;SDS011;4732;49.340;10.886;2023-09-12T12:01:56;10.70;;;6.72;;
9384;SDS011;4732;49.340;10.886;2023-09-12T12:04:25;10.80;;;6.90;;
9384;SDS011;4732;49.340;10.886;2023-09-12T12:06:54;10.07;;;6.72;;
9384;SDS011;4732;49.340;10.886;2023-09-12T12:09:19;10.48;;;6.88;;
9384;SDS011;4732;49.340;10.886;2023-09-12T12:11:46;10.07;;;7.15;;
9384;SDS011;4732;49.340;10.886;2023-09-12T12:14:13;8.25;;;6.40;;
9384;SDS011;4732;49.340;10.886;2023-09-12T12:16:42;6.35;;;5.75;;
9384;SDS011;4732;49.340;10.886;2023-09-12T12:19:09;11.02;;;6.97;;
9384;SDS011;4732;49.340;10.886;2023-09-12T12:21:36;8.10;;;6.60;;
9384;SDS011;4732;49.340;10.886;2023-09-12T12:24:05;9.23;;;6.25;;
9384;SDS011;4732;49.340;10.886;2023-09-12T12:26:32;8.50;;;6.63;;
9384;SDS011;4732;49.340;10.886;2023-09-12T12:29:02;9.77;;;6.70;;
9384;SDS011;4732;49.340;10.886;2023-09-12T12:31:31;12.88;;;7.50;;
9384;SDS011;4732;49.340;10.886;2023-09-12T12:33:57;8.65;;;6.97;;
9384;SDS011;4732;49.340;10.886;2023-09-12T12:36:24;9.43;;;7.20;;
9384;SDS011;4732;49.340;10.886;2023-09-12T12:38:50;9.70;;;6.43;;
9384;SDS011;4732;49.340;10.886;2023-09-12T12:41:22;7.25;;;5.78;;
9384;SDS011;4732;49.340;10.886;2023-09-12T12:43:49;8.93;;;6.43;;
9384;SDS011;4732;49.340;10.886;2023-09-12T12:46:20;8.48;;;6.65;;
9384;SDS011;4732;49.340;10.886;2023-09-12T12:48:46;11.10;;;6.65;;
9384;SDS011;4732;49.340;10.886;2023-09-12T12:51:33;10.52;;;7.03;;
9384;SDS011;4732;49.340;10.886;2023-09-12T12:54:04;8.15;;;6.10;;
9384;SDS011;4732;49.340;10.886;2023-09-12T12:56:31;9.18;;;6.63;;
9384;SDS011;4732;49.340;10.886;2023-09-12T12:59:00;10.30;;;6.90;;
9384;SDS011;4732;49.340;10.886;2023-09-12T13:01:32;9.38;;;7.28;;
9384;SDS011;4732;49.340;10.886;2023-09-12T13:03:58;8.65;;;7.00;;
9384;SDS011;4732;49.340;10.886;2023-09-12T13:06:24;7.65;;;6.63;;
9384;SDS011;4732;49.340;10.886;2023-09-12T13:08:52;8.75;;;6.70;;
9384;SDS011;4732;49.340;10.886;2023-09-12T13:11:18;8.32;;;6.25;;
9384;SDS011;4732;49.340;10.886;2023-09-12T13:13:44;12.48;;;7.05;;
9384;SDS011;4732;49.340;10.886;2023-09-12T13:16:12;12.13;;;6.68;;
9384;SDS011;4732;49.340;10.886;2023-09-12T13:18:41;7.35;;;6.35;;
9384;SDS011;4732;49.340;10.886;2023-09-12T13:21:07;9.15;;;6.80;;
9384;SDS011;4732;49.340;10.886;2023-09-12T13:23:33;10.52;;;6.80;;
9384;SDS011;4732;49.340;10.886;2023-09-12T13:26:00;10.20;;;6.65;;
9384;SDS011;4732;49.340;10.886;2023-09-12T13:28:26;9.75;;;6.75;;
9384;SDS011;4732;49.340;10.886;2023-09-12T13:30:52;8.45;;;6.38;;
9384;SDS011;4732;49.340;10.886;2023-09-12T13:33:18;8.85;;;6.70;;
9384;SDS011;4732;49.340;10.886;2023-09-12T13:35:44;7.82;;;6.95;;
9384;SDS011;4732;49.340;10.886;2023-09-12T13:38:10;9.57;;;6.53;;
9384;SDS011;4732;49.340;10.886;2023-09-12T13:40:49;10.55;;;6.40;;
9384;SDS011;4732;49.340;10.886;2023-09-12T13:43:14;8.60;;;5.97;;
9384;SDS011;4732;49.340;10.886;2023-09-12T13:45:43;8.48;;;6.57;;
9384;SDS011;4732;49.340;10.886;2023-09-12T13:48:09;9.57;;;6.72;;
9384;SDS011;4732;49.340;10.886;2023-09-12T13:50:37;10.48;;;6.32;;
9384;SDS011;4732;49.340;10.886;2023-09-12T13:53:05;7.72;;;6.82;;
9384;SDS011;4732;49.340;10.886;2023-09-12T13:55:34;6.88;;;6.28;;
9384;SDS011;4732;49.340;10.886;2023-09-12T13:58:04;9.48;;;6.53;;
9384;SDS011;4732;49.340;10.886;2023-09-12T14:00:30;7.30;;;6.53;;
9384;SDS011;4732;49.340;10.886;2023-09-12T14:02:57;10.15;;;7.18;;
9384;SDS011;4732;49.340;10.886;2023-09-12T14:05:23;12.02;;;6.57;;
9384;SDS011;4732;49.340;10.886;2023-09-12T14:07:49;7.63;;;6.53;;
9384;SDS011;4732;49.340;10.886;2023-09-12T14:10:15;7.00;;;6.30;;
9384;SDS011;4732;49.340;10.886;2023-09-12T14:12:50;7.50;;;6.80;;
9384;SDS011;4732;49.340;10.886;2023-09-12T14:15:23;10.02;;;6.75;;
9384;SDS011;4732;49.340;10.886;2023-09-12T14:17:59;8.00;;;6.80;;
9384;SDS011;4732;49.340;10.886;2023-09-12T14:20:36;8.50;;;6.60;;
9384;SDS011;4732;49.340;10.886;2023-09-12T14:23:02;8.63;;;6.07;;
9384;SDS011;4732;49.340;10.886;2023-09-12T14:25:28;8.38;;;6.63;;
9384;SDS011;4732;49.340;10.886;2023-09-12T14:27:54;10.88;;;7.10;;
9384;SDS011;4732;49.340;10.886;2023-09-12T14:30:23;7.03;;;6.35;;
9384;SDS011;4732;49.340;10.886;2023-09-12T14:32:51;10.07;;;6.82;;
9384;SDS011;4732;49.340;10.886;2023-09-12T14:35:17;7.57;;;6.15;;
9384;SDS011;4732;49.340;10.886;2023-09-12T14:37:44;9.70;;;7.10;;
9384;SDS011;4732;49.340;10.886;2023-09-12T14:40:10;7.13;;;6.47;;
9384;SDS011;4732;49.340;10.886;2023-09-12T14:42:38;9.10;;;6.95;;
9384;SDS011;4732;49.340;10.886;2023-09-12T14:45:04;7.25;;;6.35;;
9384;SDS011;4732;49.340;10.886;2023-09-12T14:47:33;8.55;;;6.68;;
9384;SDS011;4732;49.340;10.886;2023-09-12T14:49:59;9.38;;;6.90;;
9384;SDS011;4732;49.340;10.886;2023-09-12T14:52:28;13.85;;;6.85;;
9384;SDS011;4732;49.340;10.886;2023-09-12T14:54:54;7.47;;;6.30;;
9384;SDS011;4732;49.340;10.886;2023-09-12T14:57:23;6.78;;;5.78;;
9384;SDS011;4732;49.340;10.886;2023-09-12T14:59:50;6.88;;;5.80;;
9384;SDS011;4732;49.340;10.886;2023-09-12T15:02:22;7.80;;;6.07;;
9384;SDS011;4732;49.340;10.886;2023-09-12T15:04:48;11.32;;;6.00;;
9384;SDS011;4732;49.340;10.886;2023-09-12T15:07:17;10.25;;;6.40;;
9384;SDS011;4732;49.340;10.886;2023-09-12T15:09:43;6.63;;;5.85;;
9384;SDS011;4732;49.340;10.886;2023-09-12T15:12:09;9.40;;;6.40;;
9384;SDS011;4732;49.340;10.886;2023-09-12T15:14:35;8.05;;;6.43;;
9384;SDS011;4732;49.340;10.886;2023-09-12T15:17:01;6.82;;;6.10;;
9384;SDS011;4732;49.340;10.886;2023-09-12T15:19:27;11.68;;;6.05;;
9384;SDS011;4732;49.340;10.886;2023-09-12T15:21:53;7.20;;;6.38;;
9384;SDS011;4732;49.340;10.886;2023-09-12T15:24:19;7.80;;;6.38;;
9384;SDS011;4732;49.340;10.886;2023-09-12T15:26:48;8.02;;;6.25;;
9384;SDS011;4732;49.340;10.886;2023-09-12T15:29:13;9.05;;;6.35;;
9384;SDS011;4732;49.340;10.886;2023-09-12T15:31:40;7.88;;;5.88;;
9384;SDS011;4732;49.340;10.886;2023-09-12T15:34:06;8.82;;;5.90;;
9384;SDS011;4732;49.340;10.886;2023-09-12T15:36:36;7.05;;;6.35;;
9384;SDS011;4732;49.340;10.886;2023-09-12T15:39:05;8.40;;;7.10;;
9384;SDS011;4732;49.340;10.886;2023-09-12T15:41:31;11.02;;;6.05;;
9384;SDS011;4732;49.340;10.886;2023-09-12T15:44:00;7.80;;;6.13;;
9384;SDS011;4732;49.340;10.886;2023-09-12T15:46:28;8.05;;;6.50;;
9384;SDS011;4732;49.340;10.886;2023-09-12T15:48:54;6.40;;;5.82;;
9384;SDS011;4732;49.340;10.886;2023-09-12T15:51:20;7.85;;;6.57;;
9384;SDS011;4732;49.340;10.886;2023-09-12T15:53:46;10.23;;;7.03;;
9384;SDS011;4732;49.340;10.886;2023-09-12T15:56:12;9.82;;;7.10;;
9384;SDS011;4732;49.340;10.886;2023-09-12T15:58:38;8.82;;;6.55;;
9384;SDS011;4732;49.340;10.886;2023-09-12T16:01:04;8.57;;;6.10;;
9384;SDS011;4732;49.340;10.886;2023-09-12T16:03:33;9.57;;;6.85;;
9384;SDS011;4732;49.340;10.886;2023-09-12T16:05:59;7.35;;;6.60;;
9384;SDS011;4732;49.340;10.886;2023-09-12T16:08:25;13.68;;;11.43;;
9384;SDS011;4732;49.340;10.886;2023-09-12T16:10:51;21.23;;;19.05;;
9384;SDS011;4732;49.340;10.886;2023-09-12T16:13:18;9.82;;;8.77;;
9384;SDS011;4732;49.340;10.886;2023-09-12T16:15:44;7.72;;;6.72;;
9384;SDS011;4732;49.340;10.886;2023-09-12T16:18:10;10.15;;;6.03;;
9384;SDS011;4732;49.340;10.886;2023-09-12T16:20:36;6.70;;;5.93;;
9384;SDS011;4732;49.340;10.886;2023-09-12T16:23:02;10.35;;;6.75;;
9384;SDS011;4732;49.340;10.886;2023-09-12T16:25:28;7.63;;;6.82;;
9384;SDS011;4732;49.340;10.886;2023-09-12T16:27:54;7.43;;;6.43;;
9384;SDS011;4732;49.340;10.886;2023-09-12T16:30:20;6.78;;;6.18;;
9384;SDS011;4732;49.340;10.886;2023-09-12T16:32:46;8.00;;;6.43;;
9384;SDS011;4732;49.340;10.886;2023-09-12T16:35:12;8.32;;;6.03;;
9384;SDS011;4732;49.340;10.886;2023-09-12T16:37:38;7.25;;;6.57;;
9384;SDS011;4732;49.340;10.886;2023-09-12T16:40:05;7.72;;;6.35;;
9384;SDS011;4732;49.340;10.886;2023-09-12T16:42:31;7.10;;;6.22;;
9384;SDS011;4732;49.340;10.886;2023-09-12T16:44:58;7.10;;;5.97;;
9384;SDS011;4732;49.340;10.886;2023-09-12T16:47:28;7.07;;;6.38;;
9384;SDS011;4732;49.340;10.886;2023-09-12T16:49:56;7.68;;;6.75;;
9384;SDS011;4732;49.340;10.886;2023-09-12T16:52:22;7.03;;;6.43;;
9384;SDS011;4732;49.340;10.886;2023-09-12T16:54:48;8.23;;;6.93;;
9384;SDS011;4732;49.340;10.886;2023-09-12T16:57:14;8.40;;;6.43;;
9384;SDS011;4732;49.340;10.886;2023-09-12T16:59:40;7.32;;;6.57;;
9384;SDS011;4732;49.340;10.886;2023-09-12T17:02:07;7.13;;;6.43;;
9384;SDS011;4732;49.340;10.886;2023-09-12T17:04:35;7.60;;;6.70;;
9384;SDS011;4732;49.340;10.886;2023-09-12T17:07:01;8.15;;;6.13;;
9384;SDS011;4732;49.340;10.886;2023-09-12T17:09:27;8.25;;;7.00;;
9384;SDS011;4732;49.340;10.886;2023-09-12T17:11:53;9.27;;;7.00;;
9384;SDS011;4732;49.340;10.886;2023-09-12T17:14:19;7.07;;;6.45;;
9384;SDS011;4732;49.340;10.886;2023-09-12T17:16:45;9.02;;;7.30;;
9384;SDS011;4732;49.340;10.886;2023-09-12T17:19:11;12.95;;;6.90;;
9384;SDS011;4732;49.340;10.886;2023-09-12T17:21:38;9.02;;;7.15;;
9384;SDS011;4732;49.340;10.886;2023-09-12T17:24:04;8.07;;;7.32;;
9384;SDS011;4732;49.340;10.886;2023-09-12T17:26:30;9.30;;;7.82;;
9384;SDS011;4732;49.340;10.886;2023-09-12T17:28:56;8.88;;;6.93;;
9384;SDS011;4732;49.340;10.886;2023-09-12T17:31:23;11.23;;;7.22;;
9384;SDS011;4732;49.340;10.886;2023-09-12T17:33:49;11.52;;;7.05;;
9384;SDS011;4732;49.340;10.886;2023-09-12T17:36:14;9.13;;;7.05;;
9384;SDS011;4732;49.340;10.886;2023-09-12T17:38:40;8.43;;;7.28;;
9384;SDS011;4732;49.340;10.886;2023-09-12T17:41:07;7.00;;;6.40;;
9384;SDS011;4732;49.340;10.886;2023-09-12T17:43:33;7.70;;;7.00;;
9384;SDS011;4732;49.340;10.886;2023-09-12T17:46:00;10.10;;;7.70;;
9384;SDS011;4732;49.340;10.886;2023-09-12T17:48:26;8.82;;;7.32;;
9384;SDS011;4732;49.340;10.886;2023-09-12T17:50:53;8.07;;;7.28;;
9384;SDS011;4732;49.340;10.886;2023-09-12T17:53:19;8.15;;;7.32;;
9384;SDS011;4732;49.340;10.886;2023-09-12T17:55:47;8.90;;;7.10;;
9384;SDS011;4732;49.340;10.886;2023-09-12T17:58:13;7.88;;;7.10;;
9384;SDS011;4732;49.340;10.886;2023-09-12T18:00:39;7.85;;;7.05;;
9384;SDS011;4732;49.340;10.886;2023-09-12T18:03:05;8.15;;;7.32;;
9384;SDS011;4732;49.340;10.886;2023-09-12T18:05:31;10.07;;;7.88;;
9384;SDS011;4732;49.340;10.886;2023-09-12T18:07:57;7.78;;;7.07;;
9384;SDS011;4732;49.340;10.886;2023-09-12T18:10:23;8.10;;;7.30;;
9384;SDS011;4732;49.340;10.886;2023-09-12T18:12:52;9.35;;;7.53;;
9384;SDS011;4732;49.340;10.886;2023-09-12T18:15:18;8.05;;;7.20;;
9384;SDS011;4732;49.340;10.886;2023-09-12T18:17:44;9.90;;;7.60;;
9384;SDS011;4732;49.340;10.886;2023-09-12T18:20:10;9.00;;;7.68;;